This is the latest recevied weather packets stored in our database for station/object OE-11099. If no packets are shown the sender has not sent any weather packets the latest 10 day(s).
| Time | Temp. | Humidity | Pressure | Rain* | Wind** | Luminosity | Snow |
|---|---|---|---|---|---|---|---|
| 1787676905 | 21.67° C | 68% | 1012.8 hPa | 0 mm | - | 93 W/m² | - |
| 1787676079 | 21.67° C | 70% | 1012.8 hPa | 0 mm | - | 120 W/m² | - |
| 1787675706 | 21.67° C | 69% | 1012.7 hPa | 0 mm | - | 206 W/m² | - |
| 1787675105 | 21.67° C | 70% | 1012.8 hPa | 0 mm | - | 166 W/m² | - |
| 1787674279 | 21.67° C | 70% | 1012.8 hPa | 0 mm | - | 120 W/m² | - |
| 1787673906 | 21.67° C | 68% | 1012.7 hPa | 0 mm | - | 120 W/m² | - |
| 1787673306 | 21.67° C | 67% | 1012.8 hPa | 0 mm | - | 153 W/m² | - |
| 1787672479 | 22.78° C | 68% | 1012.6 hPa | 0 mm | - | 419 W/m² | - |
| 1787672106 | 21.67° C | 69% | 1012.9 hPa | 0 mm | - | 166 W/m² | - |
| 1787671506 | 21.67° C | 67% | 1012.9 hPa | 0 mm | - | 153 W/m² | - |
| 1787670679 | 22.22° C | 64% | 1012.7 hPa | 0 mm | - | 419 W/m² | - |
| 1787670305 | 21.67° C | 69% | 1012.8 hPa | 0 mm | - | 279 W/m² | - |
| 1787669706 | 21.67° C | 69% | 1012.9 hPa | 0 mm | - | 173 W/m² | - |
| 1787668879 | 21.67° C | 68% | 1012.8 hPa | 0 mm | - | 279 W/m² | - |
| 1787668506 | 21.67° C | 68% | 1012.7 hPa | 0 mm | - | 399 W/m² | - |
| 1787667905 | 21.67° C | 71% | 1012.7 hPa | 0 mm | - | 465 W/m² | - |
| 1787667079 | 20.56° C | 73% | 1012.9 hPa | 0 mm | - | 319 W/m² | - |
| 1787666706 | 20.56° C | 75% | 1013 hPa | 0 mm | - | 193 W/m² | - |
| 1787666106 | 20.56° C | 74% | 1012.9 hPa | 0 mm | - | 166 W/m² | - |
| 1787665279 | 20.56° C | 75% | 1012.7 hPa | 0 mm | - | 186 W/m² | - |
| 1787664906 | 20.56° C | 74% | 1012.7 hPa | 0 mm | - | 226 W/m² | - |
| 1787664306 | 20.56° C | 73% | 1012.7 hPa | 0 mm | - | 386 W/m² | - |
| 1787663479 | 20.56° C | 75% | 1012.7 hPa | 0 mm | - | 386 W/m² | - |
| 1787663106 | 20° C | 77% | 1013.1 hPa | 0 mm | - | 299 W/m² | - |
| 1787662506 | 20° C | 79% | 1013 hPa | 0 mm | - | 246 W/m² | - |
* Rain latest hour (hover to see other rain measurements)
** Current wind speed in m/s (hover to see current wind gust speed)